全部
Riversleigh Airport YRLH 天气
There is no TAF data available at YRLH or any nearby airports.
There is no METAR data available at YRLH. Showing METAR data for YCNY (19 mi N).
YCNY近期METAR历史数据(YRLH无数据)
| Date | Time (AEST) | Flight Rules | Wind Dir. | Speed | Type | Height AGL (ft) | Visibility | Temp (°C) | Temp (°F) | Dew Point (°C) | Dew Point (°F) | Rel. Humid. | Pressure | Density Altitude | Remarks |
|---|---|---|---|---|---|---|---|---|---|---|---|---|---|---|---|
| 10-五月 | 14:00 | n/a | 90° | 5 kt | Missing | 23° | 73° | 17° | 62° | 69% | 1016 mb | 1,294 ft | |||
| 10-五月 | 13:00 | n/a | 50° | 8 kt | Missing | 21° | 69° | 15° | 59° | 69% | 1017 mb | 1,024 ft | |||
| 10-五月 | 12:00 | n/a | 110° | 8 kt | Missing | 26° | 78° | 10° | 50° | 37% | 1018 mb | 1,594 ft | |||
| 10-五月 | 11:00 | n/a | 120° | 9 kt | Missing | 26° | 78° | 7° | 44° | 30% | 1019 mb | 1,565 ft | |||
| 10-五月 | 10:00 | n/a | 150° | 8 kt | Missing | 25° | 77° | 4° | 39° | 26% | 1019 mb | 1,445 ft | |||
| 10-五月 | 09:00 | n/a | 110° | 6 kt | Missing | 22° | 71° | 3° | 37° | 29% | 1018 mb | 1,114 ft | |||
| 10-五月 | 08:00 | n/a | 170° | 4 kt | Missing | 22° | 71° | 4° | 39° | 31% | 1018 mb | 1,114 ft | |||
| 10-五月 | 07:00 | n/a | 160° | 5 kt | Missing | 20° | 68° | 4° | 39° | 35% | 1017 mb | 904 ft | |||
| 10-五月 | 06:00 | n/a | 150° | 4 kt | Missing | 19° | 66° | 6° | 42° | 43% | 1017 mb | 784 ft | |||
| 10-五月 | 05:00 | n/a | 140° | 5 kt | Missing | 20° | 68° | 5° | 41° | 37% | 1016 mb | 934 ft | |||
| 10-五月 | 04:00 | n/a | 170° | 5 kt | Missing | 21° | 69° | 7° | 44° | 40% | 1017 mb | 1,024 ft | |||
| 10-五月 | 03:00 | n/a | 110° | 5 kt | Missing | 22° | 71° | 9° | 48° | 43% | 1016 mb | 1,174 ft | |||
| 10-五月 | 02:00 | n/a | 210° | 4 kt | Missing | 21° | 69° | 9° | 48° | 46% | 1017 mb | 1,024 ft | |||
| 10-五月 | 01:00 | n/a | 110° | 5 kt | Missing | 24° | 75° | 8° | 46° | 36% | 1017 mb | 1,384 ft | |||
| 10-五月 | 00:00 | n/a | 160° | 6 kt | Missing | 25° | 77° | 7° | 44° | 32% | 1017 mb | 1,504 ft | |||
| 09-五月 | 23:00 | n/a | 150° | 7 kt | Missing | 26° | 78° | 8° | 46° | 32% | 1017 mb | 1,624 ft | |||
| 09-五月 | 22:00 | n/a | 150° | 6 kt | Missing | 25° | 77° | 10° | 50° | 39% | 1017 mb | 1,504 ft | |||
| 09-五月 | 21:00 | n/a | 110° | 4 kt | Missing | 25° | 77° | 12° | 53° | 44% | 1017 mb | 1,504 ft | |||
| 09-五月 | 20:00 | n/a | 140° | 5 kt | Missing | 26° | 78° | 11° | 51° | 39% | 1016 mb | 1,654 ft | |||
| 09-五月 | 19:00 | n/a | 110° | 5 kt | Missing | 26° | 78° | 12° | 53° | 42% | 1016 mb | 1,654 ft | |||
| 09-五月 | 18:00 | n/a | 120° | 6 kt | Missing | 28° | 82° | 11° | 51° | 35% | 1015 mb | 1,923 ft | |||
| 09-五月 | 17:00 | n/a | 130° | 8 kt | Missing | 29° | 84° | 11° | 51° | 33% | 1014 mb | 2,073 ft | |||
| 09-五月 | 16:00 | n/a | 150° | 7 kt | Missing | 29° | 84° | 11° | 51° | 33% | 1014 mb | 2,073 ft | |||
| 09-五月 | 15:00 | n/a | 130° | 9 kt | Missing | 29° | 84° | 11° | 51° | 33% | 1014 mb | 2,073 ft |
登录
| 您的浏览器不支持. 升级您的浏览器 |
